This is the latest recevied weather packets stored in our database for station/object LKTB. If no packets are shown the sender has not sent any weather packets the latest 1 day(s).
| Time | Temp. | Humidity | Pressure | Rain* | Wind** | Luminosity | Snow |
|---|---|---|---|---|---|---|---|
| 1778176083 | 16.67° C | 48% | 1012 hPa | - | - | - | - |
| 1778175182 | 16.67° C | 48% | 1012 hPa | - | - | - | - |
| 1778174283 | 17.78° C | 45% | 1011 hPa | - | - | - | - |
| 1778173382 | 17.78° C | 45% | 1011 hPa | - | - | - | - |
| 1778172483 | 20° C | 40% | 1011 hPa | - | - | - | - |
| 1778171582 | 20° C | 40% | 1011 hPa | - | - | - | - |
| 1778170684 | 20.56° C | 32% | 1011 hPa | - | - | - | - |
| 1778169783 | 20.56° C | 32% | 1011 hPa | - | - | - | - |
| 1778168884 | 20° C | 37% | 1011 hPa | - | - | - | - |
| 1778167983 | 20° C | 37% | 1011 hPa | - | - | - | - |
| 1778167084 | 21.67° C | 30% | 1011 hPa | - | - | - | - |
| 1778166183 | 21.67° C | 30% | 1011 hPa | - | - | - | - |
| 1778165283 | 21.67° C | 33% | 1011 hPa | - | - | - | - |
| 1778164382 | 21.67° C | 33% | 1011 hPa | - | - | - | - |
| 1778163483 | 20.56° C | 35% | 1011 hPa | - | - | - | - |
| 1778162582 | 20.56° C | 35% | 1011 hPa | - | - | - | - |
| 1778161683 | 21.67° C | 35% | 1011 hPa | - | - | - | - |
| 1778160783 | 21.67° C | 35% | 1011 hPa | - | - | - | - |
| 1778159883 | 21.67° C | 35% | 1011 hPa | - | - | - | - |
| 1778158983 | 21.67° C | 35% | 1011 hPa | - | - | - | - |
| 1778158083 | 20.56° C | 37% | 1011 hPa | - | - | - | - |
| 1778157183 | 20.56° C | 37% | 1011 hPa | - | - | - | - |
| 1778156284 | 20.56° C | 37% | 1012 hPa | - | - | - | - |
| 1778155383 | 20.56° C | 37% | 1012 hPa | - | - | - | - |
| 1778154484 | 20° C | 42% | 1012 hPa | - | - | - | - |
* Rain since midnight (hover to see other rain measurements)
** Current wind speed in m/s (hover to see current wind gust speed)